RYR1983 EDDM-LYTV
Flight info
| Callsign | RYR1983 |
|---|---|
| Flight time | 1h 38m |
| Altitude | 33000 |
| Route | VAVOR3Q VAVOR M867 RADIZ DCT GIMIX/N0457F350 DCT SABAD DCT SIPAL DCT NERRA DCT DBK DCT BIGLO |
| Aircraft | B738/M-SDE2E3FGHIRWXY/LB1 |
Departure
| Time | 2026-05-01 13:35 |
|---|---|
| Airport | Munich Airport (EDDM) |
Arrival
| Time | 2026-05-01 15:14 |
|---|---|
| Airport | Tivat Airport (LYTV) |
| Time | Latitude | Longitude | Altitude | Speed | Heading |
|---|---|---|---|---|---|
| 2026-05-01 13:08 | 48.34525 | 11.74973 | 1463 ft | 0 kts | 173° |
| 2026-05-01 13:18 | 48.34544 | 11.74969 | 1458 ft | 4 kts | 173° |
| 2026-05-01 13:19 | 48.34570 | 11.74964 | 1455 ft | 4 kts | 173° |
| 2026-05-01 13:19 | 48.34593 | 11.74959 | 1458 ft | 4 kts | 162° |
| 2026-05-01 13:19 | 48.34612 | 11.74907 | 1456 ft | 1 kts | 84° |
| 2026-05-01 13:20 | 48.34611 | 11.74901 | 1457 ft | 0 kts | 84° |
| 2026-05-01 13:29 | 48.34612 | 11.74908 | 1456 ft | 2 kts | 84° |
| 2026-05-01 13:30 | 48.34649 | 11.75374 | 1463 ft | 18 kts | 84° |
| 2026-05-01 13:31 | 48.34622 | 11.75743 | 1462 ft | 16 kts | 164° |
| 2026-05-01 13:31 | 48.34424 | 11.75782 | 1463 ft | 6 kts | 164° |
| 2026-05-01 13:32 | 48.34354 | 11.75883 | 1462 ft | 0 kts | 116° |
| 2026-05-01 13:33 | 48.34351 | 11.75894 | 1463 ft | 1 kts | 110° |
| 2026-05-01 13:33 | 48.34334 | 11.75961 | 1461 ft | 10 kts | 112° |
| 2026-05-01 13:34 | 48.34269 | 11.76187 | 1466 ft | 13 kts | 114° |
| 2026-05-01 13:34 | 48.34195 | 11.76584 | 1461 ft | 42 kts | 90° |
| 2026-05-01 13:35 | 48.34384 | 11.78846 | 1501 ft | 159 kts | 79° |
| 2026-05-01 13:35 | 48.34540 | 11.80617 | 1806 ft | 181 kts | 82° |
| 2026-05-01 13:35 | 48.34798 | 11.84537 | 3149 ft | 190 kts | 82° |
| 2026-05-01 13:36 | 48.34935 | 11.86518 | 3783 ft | 197 kts | 81° |
| 2026-05-01 13:36 | 48.35100 | 11.88714 | 3993 ft | 222 kts | 81° |
| 2026-05-01 13:36 | 48.35423 | 11.93746 | 4738 ft | 255 kts | 93° |
| 2026-05-01 13:37 | 48.34806 | 11.96240 | 5457 ft | 261 kts | 127° |
| 2026-05-01 13:37 | 48.33482 | 11.98100 | 6158 ft | 264 kts | 141° |
| 2026-05-01 13:37 | 48.32003 | 11.99809 | 6821 ft | 269 kts | 141° |
| 2026-05-01 13:37 | 48.30504 | 12.01523 | 7486 ft | 272 kts | 143° |
| 2026-05-01 13:38 | 48.26779 | 12.02744 | 8406 ft | 296 kts | 183° |
| 2026-05-01 13:38 | 48.24681 | 12.02574 | 8752 ft | 308 kts | 184° |
| 2026-05-01 13:38 | 48.22553 | 12.02390 | 9546 ft | 306 kts | 184° |
| 2026-05-01 13:39 | 48.20420 | 12.02249 | 10232 ft | 309 kts | 184° |
| 2026-05-01 13:39 | 48.18265 | 12.02122 | 10891 ft | 312 kts | 184° |
| 2026-05-01 13:39 | 48.16084 | 12.01997 | 11585 ft | 314 kts | 184° |
| 2026-05-01 13:39 | 48.13932 | 12.02262 | 12254 ft | 320 kts | 163° |
| 2026-05-01 13:40 | 48.11841 | 12.03533 | 13001 ft | 321 kts | 158° |
| 2026-05-01 13:40 | 48.09812 | 12.04875 | 13705 ft | 323 kts | 159° |
| 2026-05-01 13:40 | 48.07751 | 12.06240 | 14443 ft | 323 kts | 160° |
| 2026-05-01 13:40 | 48.05699 | 12.07586 | 15242 ft | 322 kts | 160° |
| 2026-05-01 13:41 | 48.03651 | 12.08918 | 16029 ft | 320 kts | 161° |
| 2026-05-01 13:41 | 48.01605 | 12.10239 | 16775 ft | 320 kts | 161° |
| 2026-05-01 13:41 | 47.99567 | 12.11550 | 17499 ft | 319 kts | 161° |
| 2026-05-01 13:41 | 47.97534 | 12.12853 | 18249 ft | 317 kts | 160° |
| 2026-05-01 13:42 | 47.95517 | 12.14144 | 19002 ft | 315 kts | 160° |
| 2026-05-01 13:42 | 47.93516 | 12.15473 | 19672 ft | 316 kts | 154° |
| 2026-05-01 13:42 | 47.91688 | 12.17422 | 19951 ft | 333 kts | 144° |
| 2026-05-01 13:42 | 47.89876 | 12.19722 | 20076 ft | 350 kts | 142° |
| 2026-05-01 13:43 | 47.87993 | 12.22161 | 20194 ft | 367 kts | 142° |
| 2026-05-01 13:43 | 47.86026 | 12.24697 | 20314 ft | 381 kts | 142° |
| 2026-05-01 13:43 | 47.83972 | 12.27319 | 20399 ft | 396 kts | 142° |
| 2026-05-01 13:43 | 47.81840 | 12.30017 | 20544 ft | 407 kts | 142° |
| 2026-05-01 13:44 | 47.79665 | 12.32754 | 20950 ft | 411 kts | 142° |
| 2026-05-01 13:44 | 47.77479 | 12.35499 | 21418 ft | 413 kts | 143° |
| 2026-05-01 13:44 | 47.75266 | 12.38269 | 21615 ft | 421 kts | 143° |
| 2026-05-01 13:44 | 47.73034 | 12.41055 | 22282 ft | 413 kts | 141° |
| 2026-05-01 13:45 | 47.70859 | 12.43768 | 23132 ft | 406 kts | 142° |
| 2026-05-01 13:45 | 47.68666 | 12.46468 | 23338 ft | 414 kts | 142° |
| 2026-05-01 13:45 | 47.66442 | 12.49190 | 23735 ft | 415 kts | 141° |
| 2026-05-01 13:45 | 47.64222 | 12.51909 | 23826 ft | 423 kts | 142° |
| 2026-05-01 13:46 | 47.61916 | 12.54700 | 23919 ft | 430 kts | 144° |
| 2026-05-01 13:46 | 47.59534 | 12.57392 | 24257 ft | 431 kts | 144° |
| 2026-05-01 13:46 | 47.57139 | 12.59995 | 24928 ft | 424 kts | 144° |
| 2026-05-01 13:46 | 47.54741 | 12.62571 | 24987 ft | 429 kts | 147° |
| 2026-05-01 13:47 | 47.52318 | 12.65168 | 25350 ft | 429 kts | 145° |
| 2026-05-01 13:47 | 47.49900 | 12.67766 | 25613 ft | 431 kts | 143° |
| 2026-05-01 13:47 | 47.47471 | 12.70385 | 25758 ft | 434 kts | 147° |
| 2026-05-01 13:47 | 47.45027 | 12.73023 | 26069 ft | 435 kts | 142° |
| 2026-05-01 13:48 | 47.42582 | 12.75668 | 26352 ft | 437 kts | 142° |
| 2026-05-01 13:48 | 47.40125 | 12.78332 | 26530 ft | 440 kts | 142° |
| 2026-05-01 13:48 | 47.37649 | 12.81010 | 26747 ft | 443 kts | 141° |
| 2026-05-01 13:48 | 47.35152 | 12.83710 | 26980 ft | 445 kts | 142° |
| 2026-05-01 13:49 | 47.32650 | 12.86410 | 27209 ft | 446 kts | 142° |
| 2026-05-01 13:49 | 47.30160 | 12.89091 | 27713 ft | 440 kts | 140° |
| 2026-05-01 13:49 | 47.27698 | 12.91736 | 28200 ft | 436 kts | 141° |
| 2026-05-01 13:49 | 47.25261 | 12.94357 | 28717 ft | 431 kts | 142° |
| 2026-05-01 13:50 | 47.22860 | 12.96936 | 29251 ft | 425 kts | 141° |
| 2026-05-01 13:50 | 47.20479 | 12.99486 | 29722 ft | 422 kts | 140° |
| 2026-05-01 13:50 | 47.18120 | 13.02009 | 30249 ft | 416 kts | 140° |
| 2026-05-01 13:50 | 47.15804 | 13.04490 | 30776 ft | 408 kts | 141° |
| 2026-05-01 13:51 | 47.13506 | 13.06950 | 30963 ft | 413 kts | 139° |
| 2026-05-01 13:51 | 47.08784 | 13.11994 | 31130 ft | 426 kts | 139° |
| 2026-05-01 13:51 | 47.06371 | 13.14568 | 31275 ft | 430 kts | 141° |
| 2026-05-01 13:52 | 47.03957 | 13.17133 | 31710 ft | 427 kts | 142° |
| 2026-05-01 13:52 | 46.99122 | 13.22266 | 31986 ft | 433 kts | 140° |
| 2026-05-01 13:52 | 46.96666 | 13.24869 | 32156 ft | 435 kts | 140° |
| 2026-05-01 13:53 | 46.94207 | 13.27472 | 32348 ft | 437 kts | 140° |
| 2026-05-01 13:53 | 46.89243 | 13.32718 | 32602 ft | 444 kts | 139° |
| 2026-05-01 13:53 | 46.86728 | 13.35375 | 32690 ft | 449 kts | 139° |
| 2026-05-01 13:54 | 46.81606 | 13.40776 | 32844 ft | 459 kts | 139° |
| 2026-05-01 13:54 | 46.76352 | 13.46299 | 33040 ft | 468 kts | 140° |
| 2026-05-01 13:55 | 46.73713 | 13.49063 | 33290 ft | 468 kts | 139° |
| 2026-05-01 13:55 | 46.71051 | 13.51850 | 33342 ft | 473 kts | 139° |
| 2026-05-01 13:55 | 46.65666 | 13.57482 | 33570 ft | 479 kts | 139° |
| 2026-05-01 13:56 | 46.62963 | 13.60301 | 33808 ft | 478 kts | 140° |
| 2026-05-01 13:56 | 46.60259 | 13.63119 | 34058 ft | 477 kts | 139° |
| 2026-05-01 13:56 | 46.57571 | 13.65917 | 34293 ft | 474 kts | 139° |
| 2026-05-01 13:56 | 46.54895 | 13.68701 | 34553 ft | 472 kts | 139° |
| 2026-05-01 13:57 | 46.52228 | 13.71471 | 34753 ft | 472 kts | 139° |
| 2026-05-01 13:57 | 46.50466 | 13.73341 | 34720 ft | 475 kts | 138° |
| 2026-05-01 13:57 | 46.44309 | 13.80203 | 34734 ft | 479 kts | 137° |
| 2026-05-01 13:58 | 46.39049 | 13.86129 | 34737 ft | 479 kts | 137° |
| 2026-05-01 13:58 | 46.33800 | 13.91982 | 34744 ft | 475 kts | 137° |
| 2026-05-01 13:59 | 46.28564 | 13.97780 | 34754 ft | 472 kts | 137° |
| 2026-05-01 13:59 | 46.23355 | 14.03529 | 34742 ft | 470 kts | 137° |
| 2026-05-01 14:00 | 46.18160 | 14.09250 | 34752 ft | 469 kts | 137° |
| 2026-05-01 14:00 | 46.12965 | 14.14961 | 34757 ft | 471 kts | 137° |
| 2026-05-01 14:01 | 46.07736 | 14.20695 | 34744 ft | 473 kts | 138° |
| 2026-05-01 14:01 | 46.02492 | 14.26430 | 34753 ft | 474 kts | 138° |
| 2026-05-01 14:02 | 45.97278 | 14.32116 | 34750 ft | 474 kts | 138° |
| 2026-05-01 14:02 | 45.92018 | 14.37840 | 34744 ft | 474 kts | 138° |
| 2026-05-01 14:03 | 45.86763 | 14.43544 | 34741 ft | 473 kts | 138° |
| 2026-05-01 14:03 | 45.81509 | 14.49233 | 34745 ft | 473 kts | 138° |
| 2026-05-01 14:04 | 45.76257 | 14.54907 | 34750 ft | 472 kts | 138° |
| 2026-05-01 14:04 | 45.71893 | 14.59612 | 34750 ft | 473 kts | 138° |
| 2026-05-01 14:05 | 45.65751 | 14.66218 | 34742 ft | 473 kts | 138° |
| 2026-05-01 14:05 | 45.60488 | 14.71863 | 34747 ft | 473 kts | 138° |
| 2026-05-01 14:06 | 45.55219 | 14.77502 | 34758 ft | 473 kts | 138° |
| 2026-05-01 14:06 | 45.49940 | 14.83139 | 34751 ft | 474 kts | 138° |
| 2026-05-01 14:07 | 45.44644 | 14.88740 | 34749 ft | 474 kts | 139° |
| 2026-05-01 14:08 | 45.36506 | 14.96792 | 34745 ft | 475 kts | 141° |
| 2026-05-01 14:08 | 45.31097 | 15.02086 | 34743 ft | 475 kts | 140° |
| 2026-05-01 14:09 | 45.25631 | 15.07463 | 34747 ft | 475 kts | 140° |
| 2026-05-01 14:09 | 45.20240 | 15.12773 | 34756 ft | 475 kts | 140° |
| 2026-05-01 14:10 | 45.14778 | 15.18144 | 34748 ft | 475 kts | 140° |
| 2026-05-01 14:10 | 45.09383 | 15.23435 | 34752 ft | 475 kts | 140° |
| 2026-05-01 14:11 | 45.03940 | 15.28761 | 34746 ft | 476 kts | 140° |
| 2026-05-01 14:11 | 44.95770 | 15.36728 | 34738 ft | 475 kts | 140° |
| 2026-05-01 14:12 | 44.90330 | 15.42019 | 34750 ft | 475 kts | 140° |
| 2026-05-01 14:12 | 44.84887 | 15.47300 | 34748 ft | 475 kts | 140° |
| 2026-05-01 14:13 | 44.80325 | 15.51716 | 34746 ft | 475 kts | 141° |
| 2026-05-01 14:13 | 44.73999 | 15.57827 | 34752 ft | 474 kts | 141° |
| 2026-05-01 14:14 | 44.68553 | 15.63074 | 34757 ft | 475 kts | 141° |
| 2026-05-01 14:14 | 44.63092 | 15.68324 | 34749 ft | 475 kts | 141° |
| 2026-05-01 14:15 | 44.57632 | 15.73560 | 34747 ft | 475 kts | 141° |
| 2026-05-01 14:15 | 44.52171 | 15.78784 | 34748 ft | 475 kts | 141° |
| 2026-05-01 14:16 | 44.47624 | 15.83125 | 34747 ft | 476 kts | 141° |
| 2026-05-01 14:16 | 44.42114 | 15.88375 | 34750 ft | 476 kts | 141° |
| 2026-05-01 14:17 | 44.36675 | 15.93545 | 34746 ft | 476 kts | 141° |
| 2026-05-01 14:17 | 44.31200 | 15.98737 | 34744 ft | 476 kts | 141° |
| 2026-05-01 14:18 | 44.25716 | 16.03926 | 34746 ft | 476 kts | 141° |
| 2026-05-01 14:18 | 44.20226 | 16.09109 | 34739 ft | 476 kts | 141° |
| 2026-05-01 14:19 | 44.14744 | 16.14272 | 34750 ft | 475 kts | 141° |
| 2026-05-01 14:19 | 44.09269 | 16.19416 | 34750 ft | 474 kts | 141° |
| 2026-05-01 14:20 | 44.01067 | 16.27101 | 34753 ft | 473 kts | 141° |
| 2026-05-01 14:21 | 43.95611 | 16.32200 | 34747 ft | 473 kts | 141° |
| 2026-05-01 14:21 | 43.90151 | 16.37291 | 34754 ft | 473 kts | 141° |
| 2026-05-01 14:22 | 43.81941 | 16.44925 | 34747 ft | 475 kts | 141° |
| 2026-05-01 14:22 | 43.76444 | 16.50022 | 34737 ft | 476 kts | 141° |
| 2026-05-01 14:23 | 43.70938 | 16.55115 | 34757 ft | 476 kts | 141° |
| 2026-05-01 14:23 | 43.65417 | 16.60210 | 34747 ft | 477 kts | 141° |
| 2026-05-01 14:24 | 43.59937 | 16.65255 | 34747 ft | 476 kts | 141° |
| 2026-05-01 14:24 | 43.54427 | 16.70318 | 34752 ft | 476 kts | 141° |
| 2026-05-01 14:25 | 43.48915 | 16.75372 | 34744 ft | 476 kts | 141° |
| 2026-05-01 14:25 | 43.43406 | 16.80411 | 34743 ft | 475 kts | 141° |
| 2026-05-01 14:26 | 43.35167 | 16.87927 | 34743 ft | 472 kts | 141° |
| 2026-05-01 14:27 | 43.29703 | 16.92898 | 34751 ft | 470 kts | 141° |
| 2026-05-01 14:27 | 43.24248 | 16.97852 | 34745 ft | 469 kts | 141° |
| 2026-05-01 14:28 | 43.18772 | 17.02816 | 34292 ft | 473 kts | 142° |
| 2026-05-01 14:28 | 43.16046 | 17.05330 | 34045 ft | 469 kts | 138° |
| 2026-05-01 14:28 | 43.13604 | 17.08232 | 33795 ft | 463 kts | 129° |
| 2026-05-01 14:28 | 43.11517 | 17.11563 | 33540 ft | 457 kts | 120° |
| 2026-05-01 14:29 | 43.09751 | 17.15168 | 33273 ft | 455 kts | 118° |
| 2026-05-01 14:29 | 43.08012 | 17.18793 | 32566 ft | 456 kts | 118° |
| 2026-05-01 14:30 | 43.02740 | 17.29639 | 30488 ft | 458 kts | 119° |
| 2026-05-01 14:30 | 43.00955 | 17.33254 | 29745 ft | 460 kts | 119° |
| 2026-05-01 14:30 | 42.99164 | 17.36867 | 29161 ft | 457 kts | 119° |
| 2026-05-01 14:31 | 42.95652 | 17.43935 | 28072 ft | 448 kts | 119° |
| 2026-05-01 14:31 | 42.93912 | 17.47437 | 27541 ft | 443 kts | 119° |
| 2026-05-01 14:31 | 42.92192 | 17.50896 | 27014 ft | 438 kts | 120° |
| 2026-05-01 14:31 | 42.90491 | 17.54312 | 26501 ft | 432 kts | 120° |
| 2026-05-01 14:32 | 42.88856 | 17.57690 | 26246 ft | 420 kts | 120° |
| 2026-05-01 14:32 | 42.87302 | 17.61001 | 25976 ft | 409 kts | 120° |
| 2026-05-01 14:32 | 42.85790 | 17.64260 | 25509 ft | 404 kts | 120° |
| 2026-05-01 14:32 | 42.84298 | 17.67476 | 25024 ft | 399 kts | 120° |
| 2026-05-01 14:33 | 42.82823 | 17.70647 | 24516 ft | 396 kts | 120° |
| 2026-05-01 14:33 | 42.81353 | 17.73793 | 24025 ft | 392 kts | 121° |
| 2026-05-01 14:33 | 42.79894 | 17.76905 | 23530 ft | 388 kts | 122° |
| 2026-05-01 14:33 | 42.78447 | 17.79984 | 23054 ft | 383 kts | 122° |
| 2026-05-01 14:34 | 42.77015 | 17.83025 | 22563 ft | 380 kts | 123° |
| 2026-05-01 14:34 | 42.75593 | 17.86040 | 22081 ft | 376 kts | 123° |
| 2026-05-01 14:34 | 42.74185 | 17.89023 | 21602 ft | 373 kts | 124° |
| 2026-05-01 14:34 | 42.72788 | 17.91981 | 21124 ft | 370 kts | 124° |
| 2026-05-01 14:35 | 42.71401 | 17.94912 | 20647 ft | 367 kts | 125° |
| 2026-05-01 14:35 | 42.70024 | 17.97820 | 20187 ft | 365 kts | 126° |
| 2026-05-01 14:35 | 42.68651 | 18.00715 | 19712 ft | 363 kts | 126° |
| 2026-05-01 14:35 | 42.67284 | 18.03595 | 19249 ft | 362 kts | 126° |
| 2026-05-01 14:36 | 42.65916 | 18.06474 | 18780 ft | 363 kts | 127° |
| 2026-05-01 14:36 | 42.64548 | 18.09349 | 18307 ft | 364 kts | 127° |
| 2026-05-01 14:36 | 42.63149 | 18.12284 | 17845 ft | 376 kts | 127° |
| 2026-05-01 14:36 | 42.61730 | 18.15259 | 17341 ft | 385 kts | 127° |
| 2026-05-01 14:37 | 42.60277 | 18.18310 | 16832 ft | 383 kts | 127° |
| 2026-05-01 14:37 | 42.58834 | 18.21340 | 16333 ft | 381 kts | 127° |
| 2026-05-01 14:37 | 42.57395 | 18.24353 | 15830 ft | 380 kts | 126° |
| 2026-05-01 14:37 | 42.55941 | 18.27350 | 15187 ft | 382 kts | 127° |
| 2026-05-01 14:38 | 42.54410 | 18.30314 | 14630 ft | 383 kts | 128° |
| 2026-05-01 14:38 | 42.52856 | 18.33249 | 14107 ft | 383 kts | 128° |
| 2026-05-01 14:38 | 42.51305 | 18.36167 | 13634 ft | 381 kts | 128° |
| 2026-05-01 14:38 | 42.49761 | 18.39079 | 13146 ft | 380 kts | 126° |
| 2026-05-01 14:39 | 42.48227 | 18.41984 | 12652 ft | 378 kts | 126° |
| 2026-05-01 14:39 | 42.46702 | 18.44881 | 12205 ft | 376 kts | 126° |
| 2026-05-01 14:39 | 42.45186 | 18.47761 | 11717 ft | 375 kts | 126° |
| 2026-05-01 14:39 | 42.43676 | 18.50633 | 11253 ft | 373 kts | 125° |
| 2026-05-01 14:40 | 42.42176 | 18.53484 | 10797 ft | 371 kts | 125° |
| 2026-05-01 14:40 | 42.40698 | 18.56291 | 10635 ft | 361 kts | 125° |
| 2026-05-01 14:40 | 42.39259 | 18.59020 | 10455 ft | 351 kts | 125° |
| 2026-05-01 14:40 | 42.37857 | 18.61679 | 10261 ft | 345 kts | 124° |
| 2026-05-01 14:41 | 42.36456 | 18.64332 | 10015 ft | 353 kts | 125° |
| 2026-05-01 14:41 | 42.35004 | 18.67078 | 9778 ft | 363 kts | 124° |
| 2026-05-01 14:41 | 42.33461 | 18.69806 | 9533 ft | 366 kts | 134° |
| 2026-05-01 14:41 | 42.31376 | 18.71755 | 8994 ft | 371 kts | 158° |
| 2026-05-01 14:42 | 42.28858 | 18.72555 | 8269 ft | 374 kts | 175° |
| 2026-05-01 14:42 | 42.26288 | 18.72819 | 7537 ft | 367 kts | 176° |
| 2026-05-01 14:42 | 42.23764 | 18.73051 | 6815 ft | 360 kts | 176° |
| 2026-05-01 14:42 | 42.21285 | 18.73303 | 6173 ft | 353 kts | 176° |
| 2026-05-01 14:43 | 42.18903 | 18.73570 | 5924 ft | 334 kts | 175° |
| 2026-05-01 14:43 | 42.16642 | 18.73831 | 5655 ft | 319 kts | 175° |
| 2026-05-01 14:43 | 42.14486 | 18.74147 | 5384 ft | 305 kts | 170° |
| 2026-05-01 14:43 | 42.12504 | 18.74975 | 5125 ft | 294 kts | 157° |
| 2026-05-01 14:44 | 42.10663 | 18.76049 | 4862 ft | 283 kts | 151° |
| 2026-05-01 14:44 | 42.08549 | 18.79936 | 4322 ft | 245 kts | 98° |
| 2026-05-01 14:44 | 42.08427 | 18.82128 | 4115 ft | 228 kts | 82° |
| 2026-05-01 14:45 | 42.08776 | 18.84132 | 3986 ft | 213 kts | 68° |
| 2026-05-01 14:45 | 42.09451 | 18.87749 | 3690 ft | 197 kts | 104° |
| 2026-05-01 14:45 | 42.08710 | 18.89182 | 3615 ft | 179 kts | 141° |
| 2026-05-01 14:46 | 42.07692 | 18.89980 | 3565 ft | 165 kts | 155° |
| 2026-05-01 14:46 | 42.05466 | 18.90988 | 3613 ft | 171 kts | 170° |
| 2026-05-01 14:46 | 42.04283 | 18.91290 | 3632 ft | 172 kts | 170° |
| 2026-05-01 14:47 | 42.03119 | 18.91589 | 3663 ft | 171 kts | 170° |
| 2026-05-01 14:47 | 42.01962 | 18.91991 | 3587 ft | 172 kts | 163° |
| 2026-05-01 14:47 | 42.00831 | 18.92461 | 3588 ft | 169 kts | 163° |
| 2026-05-01 14:48 | 41.99558 | 18.94647 | 3584 ft | 154 kts | 76° |
| 2026-05-01 14:48 | 42.00105 | 18.95772 | 3598 ft | 144 kts | 27° |
| 2026-05-01 14:48 | 42.01960 | 18.95367 | 3598 ft | 142 kts | 334° |
| 2026-05-01 14:49 | 42.03655 | 18.94052 | 3589 ft | 140 kts | 325° |
| 2026-05-01 14:49 | 42.05365 | 18.92797 | 3594 ft | 141 kts | 335° |
| 2026-05-01 14:50 | 42.06548 | 18.92077 | 3587 ft | 141 kts | 336° |
| 2026-05-01 14:50 | 42.08953 | 18.90686 | 3595 ft | 141 kts | 337° |
| 2026-05-01 14:51 | 42.09857 | 18.90165 | 3589 ft | 141 kts | 337° |
| 2026-05-01 14:51 | 42.11656 | 18.89095 | 3589 ft | 141 kts | 332° |
| 2026-05-01 14:52 | 42.13420 | 18.87940 | 3596 ft | 141 kts | 336° |
| 2026-05-01 14:52 | 42.14318 | 18.87412 | 3591 ft | 141 kts | 338° |
| 2026-05-01 14:52 | 42.16139 | 18.86409 | 3591 ft | 141 kts | 338° |
| 2026-05-01 14:53 | 42.17048 | 18.85910 | 3596 ft | 141 kts | 338° |
| 2026-05-01 14:53 | 42.17957 | 18.85412 | 3585 ft | 141 kts | 338° |
| 2026-05-01 14:53 | 42.18866 | 18.84915 | 3596 ft | 141 kts | 338° |
| 2026-05-01 14:53 | 42.19775 | 18.84417 | 3582 ft | 141 kts | 338° |
| 2026-05-01 14:54 | 42.20684 | 18.83920 | 3592 ft | 141 kts | 338° |
| 2026-05-01 14:54 | 42.21592 | 18.83423 | 3593 ft | 141 kts | 338° |
| 2026-05-01 14:54 | 42.22507 | 18.82922 | 3426 ft | 144 kts | 338° |
| 2026-05-01 14:54 | 42.23440 | 18.82411 | 3220 ft | 142 kts | 338° |
| 2026-05-01 14:55 | 42.24345 | 18.81917 | 3032 ft | 139 kts | 338° |
| 2026-05-01 14:55 | 42.25247 | 18.81425 | 2840 ft | 140 kts | 338° |
| 2026-05-01 14:55 | 42.26150 | 18.80933 | 2644 ft | 140 kts | 338° |
| 2026-05-01 14:55 | 42.27052 | 18.80444 | 2456 ft | 139 kts | 338° |
| 2026-05-01 14:56 | 42.27944 | 18.79962 | 2254 ft | 139 kts | 338° |
| 2026-05-01 14:56 | 42.28849 | 18.79478 | 2061 ft | 140 kts | 338° |
| 2026-05-01 14:56 | 42.29755 | 18.78994 | 1850 ft | 139 kts | 338° |
| 2026-05-01 14:56 | 42.30655 | 18.78510 | 1668 ft | 141 kts | 338° |
| 2026-05-01 14:57 | 42.31558 | 18.78025 | 1463 ft | 141 kts | 338° |
| 2026-05-01 14:57 | 42.33346 | 18.77069 | 1081 ft | 138 kts | 338° |
| 2026-05-01 14:57 | 42.34242 | 18.76591 | 883 ft | 139 kts | 338° |
| 2026-05-01 14:58 | 42.35154 | 18.76103 | 692 ft | 141 kts | 338° |
| 2026-05-01 14:58 | 42.35770 | 18.75772 | 558 ft | 141 kts | 338° |
| 2026-05-01 14:58 | 42.36943 | 18.75069 | 305 ft | 138 kts | 334° |
| 2026-05-01 14:58 | 42.37804 | 18.74519 | 273 ft | 138 kts | 334° |
| 2026-05-01 14:59 | 42.38673 | 18.73929 | 273 ft | 140 kts | 335° |
| 2026-05-01 14:59 | 42.39539 | 18.73315 | 152 ft | 141 kts | 327° |
| 2026-05-01 14:59 | 42.40296 | 18.72518 | 180 ft | 133 kts | 304° |
| 2026-05-01 14:59 | 42.40691 | 18.71840 | 478 ft | 137 kts | 302° |
| 2026-05-01 15:00 | 42.42221 | 18.70755 | 1854 ft | 124 kts | 4° |
| 2026-05-01 15:00 | 42.43018 | 18.71190 | 2530 ft | 127 kts | 35° |
| 2026-05-01 15:00 | 42.43523 | 18.72149 | 3133 ft | 126 kts | 67° |
| 2026-05-01 15:01 | 42.43573 | 18.73334 | 3536 ft | 135 kts | 98° |
| 2026-05-01 15:01 | 42.43126 | 18.74624 | 3514 ft | 160 kts | 128° |
| 2026-05-01 15:01 | 42.42251 | 18.75632 | 3166 ft | 174 kts | 149° |
| 2026-05-01 15:01 | 42.41053 | 18.76345 | 2794 ft | 206 kts | 162° |
| 2026-05-01 15:02 | 42.39619 | 18.76953 | 2795 ft | 222 kts | 164° |
| 2026-05-01 15:02 | 42.38644 | 18.77327 | 3186 ft | 221 kts | 165° |
| 2026-05-01 15:02 | 42.36601 | 18.78062 | 3513 ft | 233 kts | 165° |
| 2026-05-01 15:02 | 42.35101 | 18.78907 | 3524 ft | 235 kts | 145° |
| 2026-05-01 15:03 | 42.33864 | 18.80320 | 3540 ft | 234 kts | 135° |
| 2026-05-01 15:03 | 42.32675 | 18.81834 | 3518 ft | 235 kts | 136° |
| 2026-05-01 15:03 | 42.31474 | 18.83291 | 3609 ft | 230 kts | 135° |
| 2026-05-01 15:03 | 42.30307 | 18.84777 | 3928 ft | 229 kts | 136° |
| 2026-05-01 15:04 | 42.29155 | 18.86255 | 4652 ft | 228 kts | 131° |
| 2026-05-01 15:04 | 42.28299 | 18.88049 | 5146 ft | 236 kts | 115° |
| 2026-05-01 15:04 | 42.27520 | 18.90101 | 5019 ft | 245 kts | 115° |
| 2026-05-01 15:04 | 42.27008 | 18.92220 | 4991 ft | 234 kts | 96° |
| 2026-05-01 15:05 | 42.26789 | 18.94393 | 4994 ft | 235 kts | 96° |
| 2026-05-01 15:05 | 42.26560 | 18.96589 | 4999 ft | 236 kts | 96° |
| 2026-05-01 15:05 | 42.26312 | 18.98772 | 4999 ft | 234 kts | 96° |
| 2026-05-01 15:05 | 42.26021 | 19.00933 | 4983 ft | 236 kts | 106° |
| 2026-05-01 15:06 | 42.25030 | 19.02665 | 4985 ft | 238 kts | 149° |
| 2026-05-01 15:06 | 42.23455 | 19.03144 | 4977 ft | 236 kts | 190° |
| 2026-05-01 15:06 | 42.21965 | 19.02285 | 4943 ft | 234 kts | 218° |
| 2026-05-01 15:06 | 42.20922 | 19.00718 | 4826 ft | 217 kts | 245° |
| 2026-05-01 15:07 | 42.20545 | 18.98870 | 4652 ft | 194 kts | 270° |
| 2026-05-01 15:07 | 42.20688 | 18.97184 | 4486 ft | 170 kts | 284° |
| 2026-05-01 15:07 | 42.21109 | 18.95774 | 4325 ft | 159 kts | 315° |
| 2026-05-01 15:07 | 42.21885 | 18.94768 | 4313 ft | 155 kts | 317° |
| 2026-05-01 15:08 | 42.22689 | 18.93758 | 4189 ft | 159 kts | 318° |
| 2026-05-01 15:08 | 42.23510 | 18.92732 | 4063 ft | 161 kts | 318° |
| 2026-05-01 15:08 | 42.24328 | 18.91710 | 3932 ft | 157 kts | 318° |
| 2026-05-01 15:08 | 42.25094 | 18.90735 | 3776 ft | 145 kts | 318° |
| 2026-05-01 15:09 | 42.25815 | 18.89813 | 3636 ft | 142 kts | 318° |
| 2026-05-01 15:09 | 42.26523 | 18.88904 | 3513 ft | 139 kts | 318° |
| 2026-05-01 15:09 | 42.27221 | 18.88005 | 3390 ft | 139 kts | 318° |
| 2026-05-01 15:09 | 42.27918 | 18.87107 | 3261 ft | 138 kts | 318° |
| 2026-05-01 15:10 | 42.28615 | 18.86211 | 3141 ft | 139 kts | 317° |
| 2026-05-01 15:10 | 42.30045 | 18.84457 | 2891 ft | 138 kts | 319° |
| 2026-05-01 15:10 | 42.30767 | 18.83619 | 2778 ft | 136 kts | 319° |
| 2026-05-01 15:11 | 42.31427 | 18.82687 | 2660 ft | 143 kts | 310° |
| 2026-05-01 15:11 | 42.32751 | 18.80685 | 2282 ft | 142 kts | 318° |
| 2026-05-01 15:11 | 42.33488 | 18.79814 | 2143 ft | 142 kts | 321° |
| 2026-05-01 15:12 | 42.34287 | 18.79059 | 2003 ft | 141 kts | 329° |
| 2026-05-01 15:12 | 42.35920 | 18.77487 | 1683 ft | 148 kts | 323° |
| 2026-05-01 15:12 | 42.36746 | 18.76613 | 1289 ft | 156 kts | 320° |
| 2026-05-01 15:13 | 42.39043 | 18.74010 | 229 ft | 131 kts | 313° |
| 2026-05-01 15:14 | 42.40146 | 18.72697 | 22 ft | 26 kts | 318° |
| 2026-05-01 15:14 | 42.40284 | 18.72532 | 21 ft | 28 kts | 319° |
| 2026-05-01 15:14 | 42.40559 | 18.72213 | 18 ft | 24 kts | 320° |
| 2026-05-01 15:15 | 42.40796 | 18.71933 | 17 ft | 22 kts | 318° |
| 2026-05-01 15:15 | 42.40832 | 18.71889 | 17 ft | 0 kts | 318° |
| 2026-05-01 15:16 | 42.40904 | 18.71814 | 18 ft | 14 kts | 327° |
| 2026-05-01 15:17 | 42.40970 | 18.71820 | 18 ft | 0 kts | 41° |
| 2026-05-01 15:18 | 42.41004 | 18.71852 | 18 ft | 3 kts | 14° |
| 2026-05-01 15:18 | 42.41025 | 18.71843 | 19 ft | 4 kts | 332° |
| 2026-05-01 15:19 | 42.41052 | 18.71820 | 18 ft | 1 kts | 342° |
| 2026-05-01 15:19 | 42.41077 | 18.71839 | 17 ft | 0 kts | 40° |